createdAt,value
2023-04-09T00:03:49.244Z,96.00
2023-04-09T00:08:51.737Z,95.80
2023-04-09T00:13:54.280Z,95.80
2023-04-09T00:18:56.752Z,95.70
2023-04-09T00:23:59.074Z,95.90
2023-04-09T00:29:01.493Z,95.70
2023-04-09T00:34:03.865Z,95.80
2023-04-09T00:39:06.125Z,95.90
2023-04-09T00:44:08.965Z,96.00
2023-04-09T00:49:11.281Z,95.90
2023-04-09T00:54:14.259Z,95.80
2023-04-09T00:59:16.785Z,96.10
2023-04-09T01:04:19.655Z,95.60
2023-04-09T01:09:28.533Z,95.80
2023-04-09T01:14:38.876Z,95.80
2023-04-09T01:19:58.622Z,95.90
2023-04-09T01:25:09.992Z,95.70
2023-04-09T01:30:18.970Z,95.80
2023-04-09T01:35:22.137Z,96.00
2023-04-09T01:40:27.246Z,96.00
2023-04-09T01:45:29.623Z,96.10
2023-04-09T01:50:33.135Z,96.30
2023-04-09T01:55:36.070Z,96.40
2023-04-09T02:00:47.493Z,96.50
2023-04-09T02:05:57.415Z,96.60
2023-04-09T02:11:03.435Z,97.30
2023-04-09T02:16:06.662Z,97.50
2023-04-09T02:21:10.999Z,97.70
2023-04-09T02:26:13.664Z,97.50
2023-04-09T02:31:16.472Z,97.30
2023-04-09T02:36:18.856Z,97.50
2023-04-09T02:41:21.239Z,97.70
2023-04-09T02:46:23.622Z,97.50
2023-04-09T02:51:26.767Z,97.70
2023-04-09T02:56:29.214Z,97.90
2023-04-09T03:01:31.696Z,97.80
2023-04-09T03:06:34.519Z,98.10
2023-04-09T03:11:36.965Z,98.30
2023-04-09T03:16:39.310Z,98.30
2023-04-09T03:21:41.568Z,98.50
2023-04-09T03:26:43.922Z,98.70
2023-04-09T03:31:48.950Z,98.90
2023-04-09T03:36:51.491Z,99.80
2023-04-09T03:42:06.117Z,99.90
2023-04-09T03:47:17.863Z,99.90
2023-04-09T03:52:20.577Z,99.90
2023-04-09T03:57:32.131Z,99.90
2023-04-09T04:02:34.718Z,99.90
2023-04-09T04:07:43.247Z,99.90
2023-04-09T04:12:49.869Z,99.90
2023-04-09T04:17:59.330Z,99.90
2023-04-09T04:23:23.754Z,99.90
2023-04-09T04:28:32.846Z,99.90
2023-04-09T04:33:35.702Z,99.90
2023-04-09T04:38:44.143Z,99.90
2023-04-09T04:43:53.111Z,99.90
2023-04-09T04:48:58.361Z,99.90
2023-04-09T04:54:01.966Z,99.90
2023-04-09T04:59:05.284Z,99.90
2023-04-09T05:04:19.620Z,99.90
2023-04-09T05:09:22.538Z,99.90
2023-04-09T05:14:36.292Z,99.90
2023-04-09T05:19:38.611Z,99.90
2023-04-09T05:24:41.578Z,99.90
2023-04-09T05:29:44.976Z,99.90
2023-04-09T05:34:47.801Z,99.90
2023-04-09T05:39:50.944Z,99.90
2023-04-09T05:44:53.413Z,99.90
2023-04-09T05:49:56.920Z,99.90
2023-04-09T05:54:59.492Z,99.90
2023-04-09T06:00:15.382Z,99.90
2023-04-09T06:05:22.140Z,99.90
2023-04-09T06:10:24.806Z,99.90
2023-04-09T06:15:28.096Z,99.90
2023-04-09T06:20:30.642Z,99.90
2023-04-09T06:25:33.019Z,99.90
2023-04-09T06:30:36.972Z,99.90
2023-04-09T06:35:39.360Z,99.90
2023-04-09T06:40:42.435Z,99.90
2023-04-09T06:45:44.823Z,99.90
2023-04-09T06:50:47.152Z,99.90
2023-04-09T06:55:49.623Z,99.90
2023-04-09T07:00:52.337Z,99.90
2023-04-09T07:05:55.480Z,99.90
2023-04-09T07:10:57.958Z,99.90
2023-04-09T07:16:00.453Z,99.90
2023-04-09T07:21:03.970Z,99.90
2023-04-09T07:26:07.129Z,99.90
2023-04-09T07:31:09.522Z,99.90
2023-04-09T07:36:11.866Z,99.90
2023-04-09T07:41:14.528Z,99.90
2023-04-09T07:46:21.875Z,99.90
2023-04-09T07:51:25.222Z,99.90
2023-04-09T07:56:27.476Z,99.90
2023-04-09T08:01:30.088Z,99.90
2023-04-09T08:06:32.347Z,99.90
2023-04-09T08:11:34.643Z,99.90
2023-04-09T08:16:37.043Z,99.90
2023-04-09T08:21:43.118Z,99.80
2023-04-09T08:26:45.732Z,99.40
2023-04-09T08:31:48.282Z,99.10
2023-04-09T08:36:50.774Z,99.20
2023-04-09T08:41:53.588Z,99.50
2023-04-09T08:46:57.640Z,98.90
2023-04-09T08:52:01.511Z,98.70
2023-04-09T08:57:06.857Z,97.20
2023-04-09T09:02:11.332Z,96.00
2023-04-09T09:07:14.947Z,95.80
2023-04-09T09:12:35.320Z,96.10
2023-04-09T09:17:54.910Z,95.80
2023-04-09T09:22:57.670Z,96.60
2023-04-09T09:28:08.997Z,96.80
2023-04-09T09:33:11.981Z,96.10
2023-04-09T09:38:15.949Z,96.10
2023-04-09T09:43:18.255Z,95.50
2023-04-09T09:48:20.575Z,95.30
2023-04-09T09:53:25.082Z,94.80
2023-04-09T09:58:40.922Z,94.10
2023-04-09T10:03:46.420Z,93.50
2023-04-09T10:08:50.098Z,93.30
2023-04-09T10:14:02.164Z,92.30
2023-04-09T10:19:05.019Z,92.00
2023-04-09T10:24:09.107Z,91.50
2023-04-09T10:29:16.618Z,91.70
2023-04-09T10:34:27.037Z,91.80
2023-04-09T10:39:32.047Z,91.80
2023-04-09T10:44:36.085Z,91.20
2023-04-09T10:49:40.287Z,90.70
2023-04-09T10:54:46.694Z,89.20
2023-04-09T10:59:51.743Z,88.40
2023-04-09T11:05:15.922Z,88.20
2023-04-09T11:10:21.987Z,87.60
2023-04-09T11:15:24.292Z,86.10
2023-04-09T11:20:26.952Z,81.40
2023-04-09T11:25:31.374Z,78.00
2023-04-09T11:30:34.509Z,77.80
2023-04-09T11:35:37.297Z,75.90
2023-04-09T11:40:48.746Z,73.60
2023-04-09T11:45:51.540Z,71.30
2023-04-09T11:50:54.117Z,69.10
2023-04-09T11:55:56.633Z,67.60
2023-04-09T12:00:59.360Z,67.10
2023-04-09T12:06:04.022Z,67.90
2023-04-09T12:11:13.457Z,65.00
2023-04-09T12:16:20.737Z,61.10
2023-04-09T12:21:27.109Z,59.60
2023-04-09T12:26:29.366Z,59.00
2023-04-09T12:31:31.692Z,58.20
2023-04-09T12:36:33.926Z,59.00
2023-04-09T12:41:36.494Z,59.90
2023-04-09T12:46:38.774Z,60.00
2023-04-09T12:51:41.690Z,62.70
2023-04-09T12:56:43.938Z,65.50
2023-04-09T13:01:46.499Z,65.30
2023-04-09T13:06:50.152Z,63.80
2023-04-09T13:11:52.512Z,62.90
2023-04-09T13:16:54.848Z,61.20
2023-04-09T13:21:57.220Z,59.70
2023-04-09T13:26:59.551Z,60.50
2023-04-09T13:32:06.862Z,62.10
2023-04-09T13:37:09.232Z,63.00
2023-04-09T13:42:14.161Z,65.10
2023-04-09T13:47:17.652Z,64.60
2023-04-09T13:52:20.013Z,65.50
2023-04-09T13:57:22.378Z,67.60
2023-04-09T14:02:24.842Z,68.30
2023-04-09T14:07:27.481Z,68.30
2023-04-09T14:12:29.806Z,67.60
2023-04-09T14:17:32.110Z,67.20
2023-04-09T14:22:34.453Z,67.20
2023-04-09T14:27:37.168Z,67.60
2023-04-09T14:32:39.625Z,67.30
2023-04-09T14:37:42.143Z,67.10
2023-04-09T14:42:46.184Z,68.10
2023-04-09T14:47:48.486Z,67.20
2023-04-09T14:52:51.261Z,66.30
2023-04-09T14:57:53.736Z,67.50
2023-04-09T15:02:56.444Z,66.50
2023-04-09T15:07:59.362Z,64.60
2023-04-09T15:13:01.684Z,66.10
2023-04-09T15:18:06.261Z,62.40
2023-04-09T15:23:09.215Z,57.80
2023-04-09T15:28:11.593Z,59.70
2023-04-09T15:33:13.912Z,62.10
2023-04-09T15:38:17.168Z,64.20
2023-04-09T15:43:19.528Z,64.60
2023-04-09T15:48:21.904Z,64.90
2023-04-09T15:53:27.176Z,63.80
2023-04-09T15:58:29.469Z,65.40
2023-04-09T16:03:36.901Z,67.20
2023-04-09T16:08:40.547Z,66.60
2023-04-09T16:13:42.925Z,66.20
2023-04-09T16:18:45.250Z,67.40
2023-04-09T16:23:47.691Z,67.50
2023-04-09T16:28:50.056Z,69.10
2023-04-09T16:33:52.421Z,69.60
2023-04-09T16:38:54.718Z,71.50
2023-04-09T16:43:57.022Z,73.20
2023-04-09T16:48:59.301Z,74.40
2023-04-09T16:54:01.748Z,75.50
2023-04-09T16:59:04.231Z,76.20
2023-04-09T17:04:06.784Z,77.60
2023-04-09T17:09:09.716Z,77.50
2023-04-09T17:14:12.123Z,77.80
2023-04-09T17:19:14.618Z,78.80
2023-04-09T17:24:17.024Z,80.80
2023-04-09T17:29:19.349Z,82.90
2023-04-09T17:34:21.654Z,85.00
2023-04-09T17:39:24.451Z,86.20
2023-04-09T17:44:26.822Z,88.40
2023-04-09T17:49:32.417Z,88.80
2023-04-09T17:54:35.256Z,90.50
2023-04-09T17:59:38.381Z,90.80
2023-04-09T18:04:41.721Z,91.30
2023-04-09T18:09:44.712Z,92.20
2023-04-09T18:14:49.243Z,92.80
2023-04-09T18:19:54.183Z,93.50
2023-04-09T18:24:56.741Z,93.60
2023-04-09T18:29:59.399Z,94.30
2023-04-09T18:35:01.747Z,94.30
2023-04-09T18:40:04.352Z,93.80
2023-04-09T18:45:08.260Z,93.90
2023-04-09T18:50:12.391Z,94.30
2023-04-09T18:55:14.774Z,94.50
2023-04-09T19:00:17.315Z,94.80
2023-04-09T19:05:19.863Z,95.90
2023-04-09T19:10:22.295Z,95.90
2023-04-09T19:15:26.742Z,97.30
2023-04-09T19:20:29.003Z,98.10
2023-04-09T19:25:31.371Z,98.40
2023-04-09T19:30:33.665Z,98.90
2023-04-09T19:35:40.396Z,98.70
2023-04-09T19:40:43.122Z,99.10
2023-04-09T19:45:45.609Z,99.80
2023-04-09T19:50:48.949Z,99.90
2023-04-09T19:55:51.722Z,99.90
2023-04-09T20:00:54.932Z,99.90
2023-04-09T20:05:57.335Z,99.90
2023-04-09T20:11:00.152Z,99.90
2023-04-09T20:16:02.482Z,99.90
2023-04-09T20:21:05.078Z,99.60
2023-04-09T20:26:11.186Z,99.90
2023-04-09T20:31:13.607Z,99.90
2023-04-09T20:36:19.308Z,99.90
2023-04-09T20:41:21.684Z,99.90
2023-04-09T20:46:23.980Z,99.90
2023-04-09T20:51:26.227Z,99.90
2023-04-09T20:56:29.802Z,99.90
2023-04-09T21:01:32.334Z,99.90
2023-04-09T21:06:34.852Z,99.90
2023-04-09T21:11:37.685Z,99.90
2023-04-09T21:16:40.005Z,99.90
2023-04-09T21:21:42.342Z,99.90
2023-04-09T21:26:51.489Z,99.90
2023-04-09T21:31:54.575Z,99.90
2023-04-09T21:36:56.849Z,99.90
2023-04-09T21:41:59.131Z,99.90
2023-04-09T21:47:01.850Z,99.90
2023-04-09T21:52:04.203Z,99.90
2023-04-09T21:57:06.682Z,99.90
2023-04-09T22:02:09.619Z,99.90
2023-04-09T22:07:12.012Z,99.90
2023-04-09T22:12:14.426Z,99.90
2023-04-09T22:17:17.188Z,99.90
2023-04-09T22:22:19.453Z,99.90
2023-04-09T22:27:21.791Z,99.90
2023-04-09T22:32:24.167Z,99.90
2023-04-09T22:37:27.702Z,99.90
2023-04-09T22:42:29.988Z,99.90
2023-04-09T22:47:32.271Z,99.90
2023-04-09T22:52:34.539Z,99.90
2023-04-09T22:57:38.312Z,99.90
2023-04-09T23:02:40.823Z,99.90
2023-04-09T23:07:45.038Z,99.90
2023-04-09T23:12:47.752Z,99.90
2023-04-09T23:17:52.000Z,99.90
2023-04-09T23:22:54.492Z,99.90
2023-04-09T23:27:56.721Z,99.90
2023-04-09T23:32:59.024Z,99.90
2023-04-09T23:38:01.320Z,99.90
2023-04-09T23:43:03.678Z,99.90
2023-04-09T23:48:07.493Z,99.90
2023-04-09T23:53:09.895Z,99.90
2023-04-09T23:58:12.971Z,99.90
